Date,TemperatureHighF,TemperatureAvgF,TemperatureLowF,DewpointHighF,DewpointAvgF,DewpointLowF,HumidityHigh,HumidityAvg,HumidityLow,PressureMaxIn,PressureMinIn,WindSpeedMaxMPH,WindSpeedAvgMPH,GustSpeedMaxMPH,PrecipitationSumIn
2012-1-1,53,42,31,46,37,30,97,82,54,30.06,29.63,7,1,11,0.01
2012-1-2,49,41,32,47,26,16,92,60,33,29.71,29.53,14,2,19,0.02
2012-1-3,32,24,13,18,6,-7,68,47,34,30.01,29.71,8,2,14,0.00
2012-1-4,27,18,9,5,-1,-3,62,45,29,30.11,29.91,5,1,9,0.00
2012-1-5,37,30,24,22,14,4,62,53,43,29.92,29.73,6,1,11,0.00
2012-1-6,47,34,25,31,24,13,87,68,55,29.94,29.71,4,0,7,0.00
2012-1-7,60,43,27,33,30,25,92,65,35,29.87,29.63,8,1,12,0.00
2012-1-8,44,38,27,28,22,15,67,54,41,30.27,29.88,7,1,12,0.00
2012-1-9,42,30,22,18,15,10,79,56,27,30.30,30.00,2,0,6,0.00
2012-1-10,47,36,27,28,25,19,91,65,47,29.97,29.74,7,1,11,0.00
2012-1-11,40,33,24,30,24,20,90,70,47,30.13,29.95,4,1,8,0.00
2012-1-12,41,37,32,39,34,30,94,89,77,30.05,29.48,9,2,17,1.34
2012-1-13,51,36,30,48,28,14,97,74,45,29.59,29.16,14,3,30,0.06
2012-1-14,33,28,18,18,12,5,65,52,39,30.01,29.60,10,3,19,0.00
2012-1-15,18,12,5,7,-3,-7,65,52,37,30.50,30.02,9,2,14,0.00
2012-1-16,32,19,6,30,5,-3,92,57,30,30.59,30.12,5,1,8,0.00
2012-1-17,47,38,32,44,35,30,93,88,78,30.10,29.45,6,1,9,0.24
2012-1-18,52,36,20,45,17,0,88,48,33,30.14,29.42,19,4,29,0.01
2012-1-19,31,23,13,27,12,0,90,64,43,30.29,29.96,7,1,11,0.00
2012-1-20,30,26,19,27,15,6,94,66,40,30.29,29.91,6,1,19,0.00
2012-1-21,21,19,15,17,11,1,85,74,46,30.35,30.11,6,1,9,0.00
2012-1-22,30,22,12,21,14,5,78,71,61,30.56,30.35,4,0,9,0.00
2012-1-23,45,36,27,44,31,20,96,83,76,30.52,29.87,3,0,8,0.33
2012-1-24,56,49,40,50,41,28,96,76,52,30.04,29.83,6,1,11,0.01
2012-1-25,41,38,34,28,25,24,71,61,52,30.19,30.04,7,2,11,0.00
2012-1-26,41,35,31,33,28,25,93,77,61,30.21,29.98,5,0,8,0.16
2012-1-27,43,40,35,42,38,31,96,92,72,29.97,29.26,11,1,18,1.01
2012-1-28,49,40,32,32,29,26,80,64,43,29.99,29.61,8,1,16,0.00
2012-1-29,42,37,32,30,16,11,69,44,29,30.07,29.88,11,3,18,0.00
2012-1-30,39,33,25,24,16,9,72,52,30,30.28,29.92,14,2,17,0.00
2012-1-31,46,35,27,32,23,17,91,64,46,30.28,30.00,3,0,6,0.00
2012-2-1,60,46,34,42,36,30,94,72,52,30.01,29.74,12,2,16,0.00
2012-2-2,42,37,31,32,28,22,79,72,60,30.18,29.96,3,0,9,0.00
2012-2-3,39,32,24,22,14,7,70,51,27,30.37,30.19,10,2,13,0.00
2012-2-4,43,35,26,25,18,8,78,51,35,30.25,30.09,8,1,12,0.00
2012-2-5,38,27,19,14,9,6,66,48,29,30.17,30.06,3,1,9,0.00
2012-2-6,51,37,24,25,20,14,68,52,29,30.08,29.83,14,2,15,0.00
2012-2-7,46,36,27,27,23,17,85,61,44,30.23,29.87,5,1,10,0.00
2012-2-8,38,30,18,17,10,5,67,45,26,30.32,30.07,4,1,8,0.00
2012-2-9,48,36,26,17,14,10,62,44,22,30.09,29.95,5,1,9,0.00
2012-2-10,51,37,23,32,20,15,78,53,26,30.10,29.88,7,1,14,0.00
2012-2-11,40,35,29,33,28,13,92,77,53,29.88,29.52,9,1,13,0.07
2012-2-12,28,21,15,13,0,-4,53,41,30,29.89,29.55,9,3,22,0.00
2012-2-13,42,28,14,18,12,-2,74,52,34,29.97,29.79,12,2,21,0.00
2012-2-14,44,32,21,21,16,9,82,55,25,30.10,29.98,2,0,9,0.00
2012-2-15,45,38,31,34,30,21,87,75,64,30.22,30.09,1,0,3,0.00
2012-2-16,47,37,27,36,31,25,92,79,52,30.27,30.04,3,0,7,0.06
2012-2-17,50,42,34,42,31,20,93,68,41,30.03,29.83,7,1,12,0.03
2012-2-18,47,39,29,29,22,18,86,54,33,29.97,29.82,9,2,17,0.00
2012-2-19,47,36,27,29,20,15,87,57,30,30.06,29.95,6,1,9,0.00
2012-2-20,41,32,26,17,12,7,65,47,25,30.30,30.00,8,1,16,0.00
2012-2-21,44,33,21,36,20,15,84,60,32,30.33,29.85,5,1,10,0.00
2012-2-22,56,45,34,37,31,24,93,62,33,29.84,29.53,9,2,15,0.00
2012-2-23,53,46,36,44,35,23,88,67,42,29.78,29.34,9,1,17,0.02
2012-2-24,41,37,33,39,32,25,94,82,63,29.80,29.20,6,1,10,0.58
2012-2-25,43,38,31,37,22,16,93,55,36,29.79,29.20,19,6,33,0.00
2012-2-26,41,33,26,17,5,-2,55,33,17,30.43,29.80,9,2,17,0.00
2012-2-27,52,38,21,32,22,8,76,54,37,30.45,30.01,7,1,14,0.00
2012-2-28,47,40,32,32,19,12,73,44,28,30.38,30.02,9,2,19,0.00
2012-2-29,37,33,31,33,21,12,94,66,42,30.39,29.92,3,0,9,0.17
2012-3-1,36,32,23,34,30,20,94,92,88,30.01,29.74,8,2,14,1.03
2012-3-2,32,27,22,28,23,19,88,85,82,30.16,29.98,4,1,6,0.00
2012-3-3,46,37,32,42,35,28,96,92,80,29.96,29.35,6,0,10,0.36
2012-3-4,42,36,30,31,24,20,89,64,42,29.67,29.52,7,1,8,0.00
2012-3-5,38,31,24,21,11,4,62,46,25,30.30,29.63,11,3,14,0.00
2012-3-6,40,27,18,11,4,-2,57,40,17,30.58,30.31,6,1,13,0.00
2012-3-7,63,46,30,37,28,12,78,53,30,30.57,30.22,12,2,17,0.00
2012-3-8,69,59,50,49,46,38,76,62,40,30.23,29.69,13,4,23,0.00
2012-3-9,61,43,34,50,24,14,77,50,27,30.14,29.68,11,3,21,0.02
2012-3-10,40,34,29,26,19,16,73,56,43,30.52,30.14,7,1,13,0.00
2012-3-11,60,44,27,30,23,19,81,47,24,30.51,30.24,12,2,17,0.00
2012-3-12,74,55,38,35,30,24,74,43,17,30.25,30.09,4,1,8,0.00
2012-3-13,73,59,48,54,47,34,90,65,42,30.09,29.84,8,1,14,0.11
2012-3-14,56,46,40,50,42,36,92,85,68,30.26,29.92,9,1,13,0.00
2012-3-15,44,40,37,36,34,31,89,79,67,30.37,30.25,6,1,9,0.00
2012-3-16,44,40,35,42,36,31,94,84,74,30.34,30.09,2,0,5,0.06
2012-3-17,52,45,38,43,40,36,95,82,65,30.36,30.15,2,0,8,0.00
2012-3-18,77,56,39,49,44,36,93,68,35,30.33,30.11,7,1,11,0.00
2012-3-19,81,59,46,52,46,42,95,67,28,30.27,30.11,6,0,11,0.00
2012-3-20,81,62,42,56,47,40,93,63,30,30.31,30.18,5,1,11,0.00
2012-3-21,79,66,52,58,55,50,96,71,44,30.33,30.20,8,1,11,0.00
2012-3-22,84,69,56,57,54,51,92,63,34,30.22,29.96,6,1,10,0.00
2012-3-23,77,67,60,53,39,20,76,41,19,30.11,29.95,7,1,13,0.00
2012-3-24,60,52,48,34,27,21,57,40,22,30.16,30.04,5,1,9,0.00
2012-3-25,48,46,43,41,37,32,87,72,57,30.02,29.70,3,0,7,0.02
2012-3-26,47,40,31,43,24,5,95,58,27,29.98,29.61,13,3,21,0.00
2012-3-27,48,35,26,9,-1,-9,37,23,9,30.17,29.98,9,3,18,0.00
2012-3-28,51,43,33,44,26,4,88,54,23,30.14,29.53,4,1,8,0.07
2012-3-29,47,44,40,44,34,26,92,70,51,29.90,29.51,9,2,13,0.02
2012-3-30,52,42,34,27,18,5,74,42,16,30.02,29.91,9,1,14,0.00
2012-3-31,44,40,32,36,31,22,90,71,45,30.04,29.88,4,0,7,0.05
2012-4-1,53,41,27,40,32,26,94,75,41,29.88,29.61,8,1,9,0.16
2012-4-2,54,45,39,39,26,10,93,56,18,29.80,29.57,8,2,20,0.06
2012-4-3,59,45,33,24,13,7,52,30,13,29.83,29.69,7,2,15,0.00
2012-4-4,62,50,37,38,24,13,75,40,17,29.72,29.45,10,2,18,0.00
2012-4-5,52,43,34,33,26,21,83,53,34,29.89,29.64,7,2,14,0.00
2012-4-6,53,43,33,23,20,15,66,43,24,29.97,29.86,6,1,10,0.00
2012-4-7,54,43,32,27,21,16,59,43,27,30.00,29.90,8,1,18,0.00
2012-4-8,51,45,40,29,26,20,65,48,32,29.97,29.58,10,1,14,0.00
2012-4-9,58,49,37,33,30,27,72,49,35,29.61,29.48,12,3,21,0.00
2012-4-10,62,52,39,29,25,18,59,37,19,29.74,29.57,9,2,19,0.00
2012-4-11,58,49,42,37,32,28,80,52,36,29.85,29.73,8,1,12,0.00
2012-4-12,54,45,38,43,38,35,93,80,50,30.07,29.84,9,1,10,0.32
2012-4-13,65,50,35,38,30,19,95,54,18,30.14,29.99,7,1,12,0.00
2012-4-14,71,58,39,32,25,17,67,32,13,30.13,29.95,7,1,14,0.00
2012-4-15,77,66,54,54,46,32,67,50,38,29.98,29.86,6,1,15,0.00
2012-4-16,91,74,59,59,56,48,91,58,24,29.98,29.86,7,1,13,0.00
2012-4-17,84,70,56,57,40,18,89,43,11,30.10,29.86,9,2,14,0.00
2012-4-18,63,55,49,40,32,25,71,43,28,30.23,30.10,4,1,11,0.00
2012-4-19,73,58,44,45,40,26,88,57,18,30.12,29.94,9,1,9,0.00
2012-4-20,78,62,48,48,43,36,84,55,26,30.00,29.89,11,1,13,0.00
2012-4-21,79,64,55,57,52,43,90,67,41,29.89,29.67,8,1,14,0.00
2012-4-22,62,52,42,57,48,41,93,88,81,29.82,29.63,6,1,12,1.02
2012-4-23,62,51,42,61,48,40,97,90,77,29.68,29.29,9,1,14,2.12
2012-4-24,57,51,45,44,35,28,90,57,33,29.68,29.38,8,2,17,0.00
2012-4-25,62,50,39,40,33,26,95,56,26,29.86,29.68,7,1,16,0.00
2012-4-26,64,52,38,50,36,28,82,56,29,29.94,29.53,6,1,12,0.00
2012-4-27,56,50,40,52,35,22,91,58,38,29.98,29.47,12,2,19,0.00
2012-4-28,59,46,32,24,20,14,72,38,17,30.11,29.98,11,2,13,0.00
2012-4-29,59,49,36,27,16,3,68,32,12,30.20,29.98,12,1,16,0.00
2012-4-30,64,50,33,35,23,15,67,38,19,30.32,30.18,5,1,9,0.00
2012-5-1,50,46,44,46,42,31,94,84,48,30.20,30.04,9,1,15,0.72
2012-5-2,53,48,44,46,44,43,95,87,73,30.22,30.12,4,1,9,0.00
2012-5-3,53,49,47,49,47,44,95,90,85,30.20,30.10,2,0,5,0.05
2012-5-4,59,54,50,55,51,47,95,91,85,30.08,29.90,6,0,6,0.01
2012-5-5,61,54,48,55,51,47,96,88,75,30.07,29.92,4,0,7,0.06
2012-5-6,60,52,45,50,43,39,96,74,47,30.14,30.06,6,1,9,0.00
2012-5-7,71,58,44,47,43,38,94,61,37,30.13,30.06,8,1,11,0.00
2012-5-8,58,53,49,53,46,37,94,76,52,30.09,29.87,5,1,12,0.19
2012-5-9,64,60,55,61,58,54,96,93,88,29.87,29.57,4,0,8,0.21
2012-5-10,66,57,49,58,50,40,97,77,46,29.68,29.36,9,2,15,1.18
2012-5-11,65,55,45,44,38,32,78,55,30,30.02,29.69,7,2,11,0.00
2012-5-12,80,62,40,48,38,24,92,49,17,30.14,30.01,6,1,16,0.00
2012-5-13,84,69,52,53,48,42,83,52,23,30.14,30.02,8,1,12,0.00
2012-5-14,74,61,57,58,54,50,95,78,57,30.16,30.07,5,0,10,0.38
2012-5-15,73,64,58,61,57,53,95,81,51,30.15,29.95,6,1,13,0.50
2012-5-16,73,66,62,66,62,60,96,89,71,29.94,29.79,5,1,11,0.03
2012-5-17,70,62,50,60,43,32,94,55,26,30.13,29.85,5,1,10,0.00
2012-5-18,72,59,45,48,42,39,93,58,31,30.25,30.13,5,1,9,0.00
2012-5-19,76,63,46,49,45,39,91,56,27,30.19,30.10,5,1,10,0.00
2012-5-20,80,67,51,54,47,42,90,55,26,30.28,30.15,5,1,8,0.00
2012-5-21,66,59,50,58,54,47,95,84,70,30.27,30.06,5,1,7,0.00
2012-5-22,64,61,58,62,59,57,97,96,93,30.06,29.81,4,1,9,0.54
2012-5-23,79,67,60,65,62,60,97,84,58,30.04,29.83,2,0,6,0.01
2012-5-24,79,69,60,64,61,58,95,78,56,30.24,30.05,6,1,8,0.00
2012-5-25,75,67,61,67,62,58,91,84,73,30.25,30.10,7,1,12,0.00
2012-5-26,85,76,68,70,66,62,91,74,50,30.10,30.00,8,1,10,0.00
2012-5-27,79,70,59,62,54,46,88,61,35,30.16,30.00,5,1,11,0.00
2012-5-28,77,68,62,63,59,55,92,74,55,30.01,29.92,7,1,10,0.00
2012-5-29,76,67,61,66,62,58,96,86,71,29.94,29.69,6,1,8,0.30
2012-5-30,76,70,64,67,64,60,96,82,59,29.73,29.67,3,0,4,0.01
2012-5-31,82,72,63,64,56,49,91,61,35,29.89,29.69,4,0,8,0.00
2012-6-1,70,63,57,52,45,38,75,53,33,30.07,29.90,8,1,11,0.00
2012-6-2,64,59,54,63,56,46,96,89,65,30.00,29.68,5,1,8,1.56
2012-6-3,63,59,54,61,55,50,96,86,71,29.68,29.64,7,1,9,0.04
2012-6-4,53,51,49,49,48,47,94,91,85,29.80,29.60,11,2,13,0.18
2012-6-5,58,52,49,51,49,47,95,88,76,29.93,29.77,3,0,9,0.05
2012-6-6,66,57,48,54,51,47,96,82,57,29.98,29.92,5,1,8,0.01
2012-6-7,73,60,54,58,54,51,96,81,50,29.97,29.89,3,0,9,0.11
2012-6-8,80,64,51,65,56,50,96,80,39,29.93,29.73,6,1,9,0.11
2012-6-9,78,68,56,60,54,47,94,65,33,29.92,29.77,8,1,11,0.03
2012-6-10,82,69,57,58,51,39,93,57,26,30.21,29.92,4,1,11,0.00
2012-6-11,78,66,54,58,53,50,92,65,43,30.28,30.20,7,1,10,0.00
2012-6-12,76,67,59,62,58,51,91,72,58,30.20,29.96,8,1,12,0.01
2012-6-13,66,64,62,64,62,61,95,94,92,30.06,29.91,3,0,7,0.66
2012-6-14,74,66,57,63,54,43,96,69,33,30.25,30.06,7,1,11,0.00
2012-6-15,74,64,52,54,51,48,94,66,46,30.31,30.24,6,1,11,0.00
2012-6-16,70,60,51,57,53,50,94,77,57,30.35,30.27,6,1,10,0.00
2012-6-17,69,60,51,54,50,47,93,74,55,30.28,30.12,8,1,11,0.00
2012-6-18,70,61,51,57,52,49,92,75,52,30.16,30.10,8,1,10,0.00
2012-6-19,75,66,55,63,59,53,92,78,64,30.16,30.02,6,1,10,0.00
2012-6-20,97,82,65,76,70,61,92,68,46,30.01,29.83,6,1,10,0.00
2012-6-21,96,86,73,73,70,67,86,59,40,29.84,29.70,4,1,7,0.00
2012-6-22,95,82,72,72,69,66,92,68,39,29.75,29.66,8,1,10,0.08
2012-6-23,88,73,63,69,65,58,95,80,38,29.91,29.74,3,0,7,0.69
2012-6-24,85,73,58,61,56,46,96,60,27,29.93,29.85,5,1,11,0.00
2012-6-25,73,68,62,64,62,58,93,82,64,29.85,29.61,6,1,10,0.66
2012-6-26,73,65,59,60,57,53,93,75,59,29.64,29.52,7,1,12,0.00
2012-6-27,78,68,59,58,55,53,79,64,46,29.71,29.55,11,2,14,0.00
2012-6-28,86,75,62,60,56,51,80,54,31,29.74,29.66,6,1,11,0.00
2012-6-29,90,76,65,74,64,52,92,68,35,29.69,29.52,6,1,9,0.04
2012-6-30,91,79,63,66,57,53,78,49,29,29.70,29.61,8,2,17,0.00
2012-7-1,91,80,68,68,64,59,84,61,35,29.81,29.70,7,1,11,0.00
2012-7-2,86,76,67,64,62,57,86,64,38,29.86,29.80,3,0,11,0.00
2012-7-3,86,76,65,62,58,49,83,56,28,29.90,29.82,4,1,8,0.00
2012-7-4,87,77,68,72,68,61,95,75,56,29.83,29.65,4,1,11,0.36
2012-7-5,84,77,71,71,65,62,90,68,50,29.84,29.63,6,1,9,0.00
2012-7-6,88,78,64,68,64,61,90,66,45,29.90,29.80,5,1,7,0.00
2012-7-7,85,78,71,72,68,65,82,73,54,29.80,29.70,3,1,14,0.00
2012-7-8,89,78,66,67,62,51,92,61,38,29.86,29.75,6,1,11,0.00
2012-7-9,84,74,61,56,52,47,78,50,31,29.96,29.86,6,1,10,0.00
2012-7-10,84,73,58,58,51,44,83,51,27,30.06,29.96,6,1,9,0.00
2012-7-11,86,75,61,64,58,51,90,60,31,30.18,30.07,3,1,9,0.00
2012-7-12,91,77,63,64,62,59,93,62,34,30.18,30.07,4,1,8,0.00
2012-7-13,90,78,67,70,63,57,75,60,44,30.17,30.10,8,1,10,0.00
2012-7-14,90,80,71,67,65,63,80,60,42,30.12,30.03,5,1,8,0.00
2012-7-15,91,80,68,73,67,63,87,66,39,30.08,29.86,5,1,11,0.00
2012-7-16,92,81,72,72,69,66,88,68,43,29.86,29.71,6,1,17,0.00
2012-7-17,96,84,70,71,68,65,91,61,38,29.77,29.64,10,2,16,0.00
2012-7-18,94,81,70,73,71,67,95,73,49,29.87,29.66,11,1,13,2.06
2012-7-19,83,74,65,72,60,54,95,65,43,30.00,29.86,5,1,8,0.00
2012-7-20,73,69,62,64,57,50,87,68,46,30.07,30.00,7,1,9,0.00
2012-7-21,80,69,54,60,53,47,95,62,33,30.11,30.04,5,1,9,0.00
2012-7-22,87,73,58,61,58,54,92,64,34,30.13,30.05,7,1,11,0.00
2012-7-23,85,74,65,71,66,60,89,76,57,30.09,29.74,7,2,13,0.00
2012-7-24,90,78,70,73,68,54,93,75,52,29.74,29.49,10,1,12,0.13
2012-7-25,83,73,62,57,54,51,76,54,33,29.80,29.68,4,1,9,0.00
2012-7-26,84,75,67,73,65,57,88,72,61,29.76,29.56,7,1,13,0.00
2012-7-27,76,72,69,73,68,66,93,86,78,29.89,29.57,3,0,7,0.10
2012-7-28,79,71,64,69,65,63,96,84,59,29.98,29.89,5,1,10,1.54
2012-7-29,72,68,64,66,64,60,96,87,73,30.06,29.91,4,0,9,0.01
2012-7-30,85,71,58,65,61,57,96,74,50,30.11,30.04,5,1,9,0.00
2012-7-31,79,69,61,66,63,59,95,82,57,30.10,29.88,7,1,8,0.61
2012-8-1,84,73,66,72,68,65,96,85,58,29.91,29.83,7,1,11,0.20
2012-8-2,89,79,68,73,70,66,95,75,49,29.88,29.80,7,1,8,0.00
2012-8-3,93,82,71,73,69,64,93,68,39,30.06,29.88,7,2,11,0.00
2012-8-4,92,81,73,75,73,71,92,77,54,30.19,30.07,3,1,9,0.06
2012-8-5,91,80,73,76,73,70,94,81,58,30.20,29.91,8,2,14,0.28
2012-8-6,85,77,67,72,64,55,94,68,38,29.96,29.89,7,1,12,0.00
2012-8-7,85,74,61,65,61,58,93,68,43,30.00,29.92,4,1,8,0.00
2012-8-8,89,76,64,69,64,60,93,69,38,29.98,29.91,4,1,8,0.00
2012-8-9,92,80,70,72,68,64,91,71,41,29.95,29.85,5,1,8,0.00
2012-8-10,86,77,71,73,71,69,94,84,61,29.91,29.77,8,1,11,1.38
2012-8-11,85,77,68,74,72,67,96,85,69,29.90,29.80,4,0,7,0.01
2012-8-12,86,78,74,73,72,69,90,80,65,29.91,29.82,8,1,13,0.00
2012-8-13,86,77,67,70,65,62,93,70,46,29.93,29.87,8,1,10,0.00
2012-8-14,84,75,65,66,64,61,91,71,49,29.93,29.88,5,1,9,0.00
2012-8-15,85,75,66,71,68,64,94,79,54,29.91,29.82,5,1,10,1.32
2012-8-16,85,74,66,70,65,61,96,76,46,29.86,29.77,5,0,10,1.73
2012-8-17,87,76,62,69,64,60,93,71,48,29.83,29.73,7,1,11,0.13
2012-8-18,69,67,62,67,64,60,94,89,78,29.87,29.80,2,0,6,0.22
2012-8-19,76,67,56,62,58,53,95,75,54,29.95,29.87,2,0,6,0.00
2012-8-20,81,70,58,64,59,54,95,72,40,29.91,29.82,3,0,8,0.00
2012-8-21,83,72,64,64,59,55,88,66,38,30.06,29.88,4,1,9,0.00
2012-8-22,84,72,58,62,58,53,92,64,36,30.13,30.06,3,0,6,0.00
2012-8-23,86,75,62,66,63,60,93,69,43,30.12,30.05,6,1,8,0.00
2012-8-24,84,74,64,67,64,61,94,74,48,30.19,30.09,4,0,8,0.00
2012-8-25,84,73,65,68,62,56,94,71,45,30.31,30.19,5,1,9,0.00
2012-8-26,84,72,60,66,60,58,93,71,46,30.33,30.21,5,1,9,0.00
2012-8-27,86,73,59,70,64,57,93,73,48,30.22,29.91,8,1,13,0.00
2012-8-28,86,76,69,72,68,61,94,78,53,29.91,29.69,4,0,7,0.23
2012-8-29,77,68,58,60,52,45,85,60,34,29.96,29.86,7,1,8,0.00
2012-8-30,81,69,53,58,54,51,93,62,35,30.03,29.93,9,2,13,0.00
2012-8-31,89,77,60,62,57,52,79,51,33,29.95,29.78,7,2,13,0.00
2012-9-1,80,73,63,66,59,53,83,64,49,30.10,29.83,8,1,10,0.00
2012-9-2,79,68,60,60,58,55,92,72,47,30.14,30.02,5,0,7,0.00
2012-9-3,80,68,58,62,59,56,95,76,46,30.22,30.12,6,1,7,0.00
2012-9-4,73,68,62,72,66,57,95,92,76,30.14,29.86,3,0,5,0.45
2012-9-5,84,75,67,75,70,64,95,85,60,29.85,29.69,7,1,11,1.11
2012-9-6,81,72,64,68,66,63,95,80,64,29.90,29.82,4,1,8,0.00
2012-9-7,88,76,67,71,68,65,95,79,51,29.92,29.83,3,1,6,0.00
2012-9-8,83,76,64,73,69,62,93,82,60,29.88,29.60,12,2,19,0.15
2012-9-9,76,65,57,62,58,53,93,78,46,29.83,29.70,4,0,6,0.02
2012-9-10,68,60,51,55,49,43,93,68,49,30.04,29.82,5,1,9,0.00
2012-9-11,75,60,48,52,46,43,85,63,34,30.25,30.04,5,0,7,0.00
2012-9-12,80,65,48,59,52,46,95,68,33,30.34,30.25,4,0,6,0.00
2012-9-13,83,70,58,64,59,56,95,72,43,30.34,30.23,7,1,11,0.00
2012-9-14,83,70,60,64,61,58,94,75,48,30.25,30.07,7,1,9,0.00
2012-9-15,74,64,53,61,55,48,94,73,41,30.06,29.96,5,1,10,0.17
2012-9-16,73,59,47,51,47,42,95,68,34,30.08,29.97,5,1,10,0.00
2012-9-17,77,61,45,56,50,43,95,70,39,30.09,30.00,5,0,8,0.00
2012-9-18,75,67,55,69,61,53,95,83,71,30.04,29.68,12,2,23,0.04
2012-9-19,73,65,53,69,53,41,95,68,34,30.18,29.67,5,1,14,1.46
2012-9-20,65,54,45,48,46,42,92,75,48,30.26,30.15,6,1,9,0.00
2012-9-21,66,55,47,55,50,45,94,84,65,30.16,30.03,4,0,6,0.00
2012-9-22,74,62,55,62,57,53,95,85,66,30.02,29.81,5,0,7,0.01
2012-9-23,72,63,49,64,52,42,94,70,36,30.08,29.78,7,1,14,0.08
2012-9-24,67,54,43,45,43,38,94,69,36,30.13,30.04,5,0,10,0.00
2012-9-25,73,59,42,53,46,40,92,66,40,30.16,30.08,10,2,17,0.00
2012-9-26,73,66,58,63,60,53,90,80,68,30.12,29.98,10,1,12,0.00
2012-9-27,71,63,51,63,53,45,96,73,40,30.23,29.98,7,0,7,0.00
2012-9-28,57,55,51,55,53,49,95,93,88,30.23,29.96,6,0,8,1.07
2012-9-29,56,55,52,55,53,51,96,93,89,29.96,29.87,3,0,6,0.16
2012-9-30,61,55,51,56,53,50,95,93,84,29.90,29.70,3,0,5,0.13
2012-10-1,68,57,48,54,51,47,95,80,60,29.93,29.69,9,2,17,0.00
2012-10-2,71,60,52,60,56,50,95,86,60,30.05,29.92,5,0,7,0.09
2012-10-3,65,62,60,63,60,59,96,95,89,30.15,30.02,2,0,4,0.08
2012-10-4,62,60,59,61,59,58,97,95,93,30.15,30.02,1,0,4,0.08
2012-10-5,79,66,56,62,59,56,97,79,47,30.02,29.90,3,0,7,0.01
2012-10-6,79,65,52,63,57,44,95,77,53,29.92,29.68,9,2,17,0.06
2012-10-7,57,51,43,47,44,40,92,76,55,30.06,29.92,3,0,6,0.13
2012-10-8,58,50,40,46,43,39,96,80,55,30.30,30.04,4,0,5,0.02
2012-10-9,58,52,48,50,47,45,94,82,68,30.29,30.14,3,0,10,0.01
2012-10-10,61,55,50,60,53,46,96,93,79,30.11,29.70,5,0,9,0.25
2012-10-11,60,49,42,47,40,34,87,72,40,30.12,29.79,7,2,15,0.00
2012-10-12,55,45,35,42,34,25,89,66,44,30.36,29.99,4,0,10,0.04
2012-10-13,54,42,28,34,27,23,88,60,30,30.46,30.30,7,0,10,0.00
2012-10-14,68,54,44,57,48,33,95,80,61,30.32,29.93,7,1,10,0.17
2012-10-15,76,66,58,62,59,54,92,79,60,29.93,29.59,12,2,18,0.02
2012-10-16,63,53,39,61,43,36,95,72,45,29.88,29.55,7,1,13,0.11
2012-10-17,64,47,34,42,37,32,94,72,34,29.99,29.87,3,0,5,0.00
2012-10-18,68,52,38,51,44,36,96,78,46,30.11,29.99,6,0,8,0.00
2012-10-19,68,60,47,66,57,46,96,90,62,30.07,29.71,9,1,14,0.23
2012-10-20,76,67,57,66,58,44,97,77,38,29.75,29.59,6,1,9,0.92
2012-10-21,64,54,42,45,42,39,94,66,41,29.87,29.73,10,1,14,0.00
2012-10-22,67,56,46,46,43,40,88,65,38,29.99,29.87,12,1,13,0.00
2012-10-23,66,53,41,48,44,39,95,74,46,30.11,29.99,4,0,7,0.00
2012-10-24,54,52,48,48,39,34,80,63,55,30.15,30.11,1,0,7,0.00
2012-10-31,49,49,48,44,43,42,84,81,78,29.56,29.54,1,0,5,0.14
2012-11-1,57,50,43,43,41,39,88,72,55,29.56,29.48,6,1,10,0.00
2012-11-2,52,48,43,42,39,36,89,74,59,29.60,29.52,6,1,11,0.02
2012-11-3,54,46,41,37,34,31,76,65,49,29.79,29.60,10,1,11,0.00
2012-11-4,53,43,35,36,33,29,86,68,53,29.93,29.78,5,1,12,0.00
2012-11-5,45,38,30,29,24,19,69,57,41,30.12,29.93,6,1,9,0.00
2012-11-6,44,32,24,24,20,15,88,63,31,30.23,30.13,1,0,4,0.00
2012-11-7,37,33,30,29,28,25,94,79,67,30.15,29.75,10,2,17,0.00
2012-11-8,39,36,31,36,33,29,93,90,80,29.74,29.61,11,3,17,0.36
2012-11-9,54,43,36,33,28,22,79,57,29,30.09,29.74,11,2,13,0.00
2012-11-10,56,42,33,36,31,26,88,66,34,30.45,30.09,4,0,7,0.00
2012-11-11,65,51,34,46,42,31,90,73,45,30.50,30.39,4,0,11,0.00
2012-11-12,70,58,44,59,51,43,97,80,54,30.45,30.21,6,1,15,0.00
2012-11-13,65,51,38,61,47,31,93,87,73,30.41,30.10,5,1,13,0.38
2012-11-14,48,40,34,31,27,23,75,60,40,30.53,30.41,7,1,9,0.00
2012-11-15,44,36,33,32,29,26,87,74,60,30.45,30.30,4,1,8,0.00
2012-11-16,46,37,32,31,29,27,91,74,52,30.43,30.28,3,0,5,0.00
2012-11-17,50,38,29,34,30,25,93,74,46,30.65,30.42,4,0,6,0.00
2012-11-18,49,36,27,33,29,25,94,79,52,30.71,30.61,8,0,9,0.00
2012-11-19,49,36,27,36,30,24,94,80,61,30.61,30.27,2,0,7,0.00
2012-11-20,50,37,28,38,32,26,95,82,61,30.25,30.12,3,0,8,0.01
2012-11-21,52,42,32,40,35,28,91,78,61,30.25,30.15,4,0,6,0.00
2012-11-22,55,43,34,41,37,32,94,82,56,30.27,30.12,3,0,6,0.00
2012-11-23,56,42,30,46,38,29,96,87,66,30.12,29.63,3,0,9,0.00
2012-11-24,47,41,33,44,26,15,94,57,38,29.64,29.52,10,3,19,0.00
2012-11-25,39,34,30,24,19,16,71,55,42,29.86,29.65,11,3,17,0.00
2012-11-26,45,37,28,26,23,20,83,59,37,30.23,29.86,9,2,18,0.00
2012-11-27,37,33,29,33,30,24,94,87,73,30.31,30.21,2,0,3,0.20
2012-11-28,37,33,27,32,27,23,93,80,61,30.21,30.11,4,0,5,0.00
2012-11-29,43,36,28,26,24,21,84,64,46,30.25,30.14,9,2,15,0.00
2012-11-30,37,32,30,27,14,4,74,49,29,30.54,30.18,4,0,7,0.00
2012-12-1,31,29,26,28,22,12,90,77,46,30.62,30.49,2,0,4,0.00
2012-12-2,51,38,30,47,36,28,94,89,79,30.48,30.02,5,0,10,0.06
2012-12-3,58,49,34,47,42,32,94,79,54,30.28,30.01,8,1,12,0.01
2012-12-4,58,45,32,55,43,31,95,93,90,30.31,29.96,4,0,10,0.03
2012-12-5,59,50,33,55,38,15,90,66,48,30.13,29.81,10,2,18,0.01
2012-12-6,41,31,23,21,18,15,85,59,39,30.31,30.13,5,1,9,0.00
2012-12-7,44,35,23,40,30,19,94,82,68,30.29,30.02,2,0,6,0.02
2012-12-8,44,42,42,43,41,40,96,95,94,30.02,29.85,3,0,5,0.26
2012-12-9,45,42,36,43,36,31,97,82,62,30.28,29.95,3,0,6,0.12
2012-12-10,60,51,41,58,50,40,97,95,93,30.14,29.47,3,0,8,0.43
2012-12-11,56,44,32,54,35,22,91,71,52,30.14,29.51,12,1,12,0.00
2012-12-12,40,32,27,25,23,21,86,70,49,30.42,30.15,2,0,5,0.00
2012-12-13,44,32,25,27,25,23,93,76,47,30.46,30.28,3,0,6,0.00
2012-12-14,49,35,25,27,24,20,91,67,32,30.27,30.03,5,1,13,0.00
2012-12-15,43,33,28,28,24,18,89,70,39,30.32,30.15,2,0,11,0.00
2012-12-16,37,33,28,36,27,22,94,81,70,30.31,30.06,5,0,10,0.25
2012-12-17,38,34,30,36,32,29,96,95,91,30.06,29.79,3,1,7,0.45
2012-12-18,50,43,36,49,42,35,97,95,92,29.79,29.39,6,1,8,0.80
2012-12-19,45,41,37,40,34,29,92,75,62,30.02,29.43,12,3,18,0.00
2012-12-20,42,36,28,35,30,26,94,79,61,30.20,30.03,3,0,8,0.00
2012-12-21,54,44,37,51,40,33,94,87,71,30.02,29.06,11,3,24,0.74
2012-12-22,38,34,29,33,23,15,84,67,50,29.63,29.22,13,3,24,0.00
2012-12-23,38,32,25,24,20,15,74,60,46,29.85,29.63,9,2,15,0.00
2012-12-24,40,32,27,23,20,17,77,62,40,30.04,29.85,7,1,9,0.00
2012-12-25,34,30,26,27,24,18,87,77,66,30.21,29.98,5,1,7,0.00
2012-12-26,38,29,20,33,22,13,93,74,59,30.31,29.89,8,1,13,0.38
2012-12-27,45,38,31,43,36,29,95,93,89,29.88,29.23,16,3,21,2.56
2012-12-28,37,31,27,29,23,20,88,73,60,30.00,29.61,11,2,17,0.00
2012-12-29,33,29,25,31,26,22,95,87,72,30.00,29.38,3,0,6,0.00
2012-12-30,31,27,21,27,18,8,94,70,49,29.96,29.42,14,2,19,0.00
2012-12-31,33,27,19,23,18,9,81,68,58,30.03,29.76,10,2,15,0.00
2013-1-1,37,31,20,26,17,6,70,57,45,29.92,29.71,12,2,19,0.02